Time;durP1;ratioP1;P1;durP2;ratioP2;P2;SDS_P1;SDS_P2;PMS_P1;PMS_P2;Temp;Humidity;BMP_temperature;BMP_pressure;BME280_temperature;BME280_humidity;BME280_pressure;Samples;Min_cycle;Max_cycle;Signal;HPM_P1;HPM_P2
2021/07/26 00:00:10;;;;;;;25.35;11.77;;;18.00;99.90;;;;;;4950860;28;20093;-87
2021/07/26 00:02:36;;;;;;;21.88;11.45;;;17.90;99.90;;;;;;4970874;28;20399;-88
2021/07/26 00:05:02;;;;;;;18.25;11.52;;;17.90;99.90;;;;;;4974309;28;20113;-87
2021/07/26 00:07:27;;;;;;;21.20;12.65;;;17.90;99.90;;;;;;4986562;28;20468;-87
2021/07/26 00:09:53;;;;;;;24.25;12.13;;;17.90;99.90;;;;;;4982468;28;20054;-88
2021/07/26 00:12:19;;;;;;;17.75;11.38;;;17.90;99.90;;;;;;4984114;28;20031;-88
2021/07/26 00:14:45;;;;;;;21.27;12.52;;;17.90;99.90;;;;;;4984085;28;20040;-88
2021/07/26 00:17:11;;;;;;;25.13;13.07;;;17.90;99.90;;;;;;4952899;28;20042;-87
2021/07/26 00:19:37;;;;;;;21.00;13.93;;;17.90;99.90;;;;;;4980792;28;20498;-87
2021/07/26 00:22:03;;;;;;;19.80;13.65;;;17.90;99.90;;;;;;4936014;28;20534;-87
2021/07/26 00:24:29;;;;;;;17.92;12.95;;;17.90;99.90;;;;;;4950634;28;20516;-86
2021/07/26 00:26:55;;;;;;;28.85;14.70;;;17.80;99.90;;;;;;4984831;28;20109;-87
2021/07/26 00:29:21;;;;;;;22.63;15.05;;;17.80;99.90;;;;;;4919343;28;20498;-87
2021/07/26 00:31:46;;;;;;;23.27;14.80;;;17.80;99.90;;;;;;4936509;28;20117;-87
2021/07/26 00:34:19;;;;;;;27.45;18.60;;;17.80;99.90;;;;;;4961041;28;20046;-87
2021/07/26 00:36:57;;;;;;;24.10;15.00;;;17.80;99.90;;;;;;4978744;28;20035;-86
2021/07/26 00:39:26;;;;;;;35.22;19.67;;;17.80;99.90;;;;;;4969124;28;20038;-87
2021/07/26 00:41:52;;;;;;;37.75;20.33;;;17.80;99.90;;;;;;4957658;28;20081;-87
2021/07/26 00:44:20;;;;;;;28.85;18.67;;;17.80;99.90;;;;;;4969002;28;20043;-88
2021/07/26 00:46:48;;;;;;;32.33;19.92;;;17.80;99.90;;;;;;4986180;28;20541;-87
2021/07/26 00:49:15;;;;;;;29.40;19.25;;;17.80;99.90;;;;;;4951619;28;20433;-85
2021/07/26 00:51:50;;;;;;;28.55;19.55;;;17.80;99.90;;;;;;4964287;28;20557;-87
2021/07/26 00:54:20;;;;;;;31.83;21.60;;;17.80;99.90;;;;;;4965166;28;20076;-86
2021/07/26 00:56:47;;;;;;;31.02;19.90;;;17.80;99.90;;;;;;4972984;28;20069;-87
2021/07/26 00:59:15;;;;;;;30.08;18.88;;;17.80;99.90;;;;;;4956898;28;20046;-87
2021/07/26 01:01:41;;;;;;;34.28;21.38;;;17.70;99.90;;;;;;4981247;28;20026;-87
2021/07/26 01:04:07;;;;;;;32.85;20.13;;;17.70;99.90;;;;;;4969444;28;20490;-87
2021/07/26 01:06:34;;;;;;;27.02;19.55;;;17.70;99.90;;;;;;4974596;28;20125;-88
2021/07/26 01:09:00;;;;;;;34.05;20.60;;;17.70;99.90;;;;;;4982206;28;20054;-87
2021/07/26 01:11:26;;;;;;;24.05;18.75;;;17.70;99.90;;;;;;4952336;28;20053;-88
2021/07/26 01:13:52;;;;;;;56.65;24.00;;;17.70;99.90;;;;;;4968443;28;20039;-88
2021/07/26 01:16:18;;;;;;;23.45;19.05;;;17.70;99.90;;;;;;4971976;28;20042;-88
2021/07/26 01:18:44;;;;;;;21.48;16.77;;;17.60;99.90;;;;;;4991370;28;20093;-87
2021/07/26 01:21:15;;;;;;;23.38;16.83;;;17.70;99.90;;;;;;4984385;28;20042;-87
2021/07/26 01:23:44;;;;;;;25.25;17.00;;;17.60;99.90;;;;;;4978936;28;20081;-87
2021/07/26 01:26:13;;;;;;;48.97;20.52;;;17.70;99.90;;;;;;4966499;28;20046;-88
2021/07/26 01:28:44;;;;;;;34.88;20.40;;;17.60;99.90;;;;;;4967740;28;20027;-88
2021/07/26 01:31:11;;;;;;;38.23;22.27;;;17.60;99.90;;;;;;4969817;28;20045;-89
2021/07/26 01:33:38;;;;;;;47.45;22.80;;;17.60;99.90;;;;;;4980192;28;20039;-87
2021/07/26 01:36:04;;;;;;;30.73;20.48;;;17.60;99.90;;;;;;4961756;28;20051;-87
2021/07/26 01:38:30;;;;;;;45.85;20.95;;;17.50;99.90;;;;;;4954835;28;20054;-88
2021/07/26 01:41:04;;;;;;;36.72;20.42;;;17.50;99.90;;;;;;4957035;28;20066;-87
2021/07/26 01:43:38;;;;;;;31.95;19.05;;;17.50;99.90;;;;;;4973473;28;20117;-87
2021/07/26 01:46:11;;;;;;;27.20;18.33;;;17.50;99.90;;;;;;4957213;28;20042;-88
2021/07/26 01:48:55;;;;;;;34.65;17.85;;;17.40;99.90;;;;;;4978206;28;20069;-87
2021/07/26 01:51:38;;;;;;;38.75;20.90;;;17.40;99.90;;;;;;4979468;28;20485;-88
2021/07/26 01:54:04;;;;;;;33.58;19.77;;;17.40;99.90;;;;;;4970741;28;20035;-87
2021/07/26 01:56:32;;;;;;;34.30;19.75;;;17.40;99.90;;;;;;4972131;28;20053;-87
2021/07/26 01:58:58;;;;;;;36.65;21.48;;;17.40;99.90;;;;;;4971221;28;20030;-87
2021/07/26 02:01:24;;;;;;;35.33;18.23;;;17.40;99.90;;;;;;4953731;28;20150;-87
2021/07/26 02:03:50;;;;;;;46.03;22.48;;;17.30;99.90;;;;;;4937182;28;20122;-87
2021/07/26 02:06:16;;;;;;;54.28;24.02;;;17.40;99.90;;;;;;4961335;28;20120;-88
2021/07/26 02:08:41;;;;;;;39.30;22.67;;;17.30;99.90;;;;;;4947132;28;20041;-89
2021/07/26 02:11:08;;;;;;;46.22;23.42;;;17.40;99.90;;;;;;4977052;28;20034;-88
2021/07/26 02:13:35;;;;;;;52.28;24.52;;;17.40;99.90;;;;;;4946843;28;20532;-88
2021/07/26 02:16:08;;;;;;;30.35;20.73;;;17.30;99.90;;;;;;4956168;28;20126;-87
2021/07/26 02:18:34;;;;;;;37.73;20.33;;;17.30;99.90;;;;;;4974812;28;20033;-88
2021/07/26 02:21:00;;;;;;;36.75;21.05;;;17.30;99.90;;;;;;4958525;28;20298;-87
2021/07/26 02:23:26;;;;;;;26.90;19.08;;;17.30;99.90;;;;;;4951699;28;20047;-87
2021/07/26 02:25:51;;;;;;;27.45;17.08;;;17.30;99.90;;;;;;4974280;28;20030;-87
2021/07/26 02:28:17;;;;;;;21.00;14.98;;;17.30;99.90;;;;;;4941741;28;20035;-87
2021/07/26 02:30:43;;;;;;;25.85;16.48;;;17.20;99.90;;;;;;4984863;28;20682;-87
2021/07/26 02:33:09;;;;;;;24.60;15.85;;;17.20;99.90;;;;;;4973274;28;20117;-87
2021/07/26 02:35:35;;;;;;;32.78;19.52;;;17.10;99.90;;;;;;4975183;28;20035;-87
2021/07/26 02:38:01;;;;;;;29.92;18.83;;;17.20;99.90;;;;;;4955678;28;20038;-88
2021/07/26 02:40:28;;;;;;;31.05;19.10;;;17.10;99.90;;;;;;4962786;28;20138;-87
2021/07/26 02:42:55;;;;;;;40.30;20.85;;;17.10;99.90;;;;;;4968123;28;20041;-87
2021/07/26 02:45:24;;;;;;;36.67;19.75;;;17.10;99.90;;;;;;4925414;28;20050;-87
2021/07/26 02:47:51;;;;;;;19.35;16.35;;;17.00;99.90;;;;;;4925342;28;20055;-88
2021/07/26 02:50:17;;;;;;;42.10;21.40;;;17.00;99.90;;;;;;4976453;28;20118;-87
2021/07/26 02:52:43;;;;;;;28.45;19.55;;;17.00;99.90;;;;;;4959645;28;20341;-87
2021/07/26 02:55:09;;;;;;;28.83;17.13;;;17.00;99.90;;;;;;4961026;28;20031;-88
2021/07/26 02:57:35;;;;;;;24.25;15.75;;;17.00;99.90;;;;;;4973689;28;20093;-88
2021/07/26 03:00:02;;;;;;;17.83;13.73;;;17.00;99.90;;;;;;4985540;28;20441;-87
2021/07/26 03:02:28;;;;;;;23.98;15.13;;;17.00;99.90;;;;;;4937216;28;20051;-88
2021/07/26 03:04:56;;;;;;;24.40;15.60;;;16.90;99.90;;;;;;4944071;28;20707;-87
2021/07/26 03:07:22;;;;;;;25.38;15.00;;;16.90;99.90;;;;;;4949783;28;20113;-87
2021/07/26 03:09:48;;;;;;;25.13;13.52;;;16.90;99.90;;;;;;4993433;28;20030;-87
2021/07/26 03:12:14;;;;;;;28.42;15.00;;;16.80;99.90;;;;;;4953022;28;20046;-86
2021/07/26 03:14:39;;;;;;;23.75;13.05;;;16.90;99.90;;;;;;4982423;28;20042;-87
2021/07/26 03:17:05;;;;;;;19.67;13.43;;;16.80;99.90;;;;;;4951089;28;21990;-87
2021/07/26 03:19:31;;;;;;;21.35;14.82;;;16.80;99.90;;;;;;4969952;28;20155;-87
2021/07/26 03:22:45;;;;;;;28.90;15.55;;;16.80;99.90;;;;;;4955501;28;20489;-87
2021/07/26 03:25:12;;;;;;;38.83;16.27;;;16.80;99.90;;;;;;4982293;28;20042;-87
2021/07/26 03:27:37;;;;;;;14.48;9.77;;;16.70;99.90;;;;;;4972928;28;20034;-87
2021/07/26 03:30:04;;;;;;;14.65;10.60;;;16.70;99.90;;;;;;4954010;28;20114;-87
2021/07/26 03:32:30;;;;;;;21.25;11.65;;;16.70;99.90;;;;;;4974184;28;20050;-87
2021/07/26 03:34:56;;;;;;;23.25;13.77;;;16.70;99.90;;;;;;4964364;28;20475;-88
2021/07/26 03:37:22;;;;;;;30.70;13.65;;;16.70;99.90;;;;;;4931061;28;20150;-87
2021/07/26 03:39:47;;;;;;;15.68;11.65;;;16.70;99.90;;;;;;4938590;28;20051;-87
2021/07/26 03:42:13;;;;;;;26.42;12.13;;;16.70;99.90;;;;;;4957116;28;20058;-87
2021/07/26 03:44:40;;;;;;;19.25;10.75;;;16.60;99.90;;;;;;4945932;28;20047;-87
2021/07/26 03:47:06;;;;;;;30.30;15.63;;;16.70;99.90;;;;;;4925303;28;20057;-87
2021/07/26 03:49:31;;;;;;;33.30;18.25;;;16.70;99.90;;;;;;4951950;28;20046;-86
2021/07/26 03:51:57;;;;;;;30.00;17.73;;;16.60;99.90;;;;;;4966282;28;20043;-87
2021/07/26 03:54:23;;;;;;;25.00;14.38;;;16.60;99.90;;;;;;4980005;28;20240;-87
2021/07/26 03:56:49;;;;;;;31.50;13.30;;;16.60;99.90;;;;;;4958779;28;20042;-87
2021/07/26 03:59:15;;;;;;;20.08;12.77;;;16.60;99.90;;;;;;4960112;28;20035;-87
2021/07/26 04:01:40;;;;;;;22.05;14.65;;;16.60;99.90;;;;;;4954628;28;20129;-87
2021/07/26 04:04:06;;;;;;;14.98;12.40;;;16.60;99.90;;;;;;4942913;28;20030;-86
2021/07/26 04:06:32;;;;;;;20.48;13.85;;;16.50;99.90;;;;;;4941057;28;20478;-87
2021/07/26 04:08:59;;;;;;;24.75;15.55;;;16.50;99.90;;;;;;4966082;28;20045;-87
2021/07/26 04:11:28;;;;;;;18.88;15.05;;;16.50;99.90;;;;;;4940921;28;20045;-87
2021/07/26 04:13:58;;;;;;;22.42;15.48;;;16.50;99.90;;;;;;4961140;28;20039;-86
2021/07/26 04:16:24;;;;;;;24.42;17.33;;;16.50;99.90;;;;;;4973440;28;20038;-87
2021/07/26 04:18:51;;;;;;;18.33;14.70;;;16.50;99.90;;;;;;4943255;28;20041;-87
2021/07/26 04:21:17;;;;;;;23.20;16.17;;;16.50;99.90;;;;;;4954464;28;20405;-87
2021/07/26 04:23:43;;;;;;;24.88;17.35;;;16.50;99.90;;;;;;4974864;28;20046;-87
2021/07/26 04:26:09;;;;;;;20.48;15.60;;;16.50;99.90;;;;;;4975268;28;20049;-87
2021/07/26 04:28:37;;;;;;;25.17;17.15;;;16.50;99.90;;;;;;4966850;28;20359;-86
2021/07/26 04:31:04;;;;;;;22.23;16.38;;;16.60;99.90;;;;;;4970060;28;20552;-87
2021/07/26 04:33:42;;;;;;;19.33;15.35;;;16.60;99.90;;;;;;4960252;28;20039;-87
2021/07/26 04:36:08;;;;;;;24.25;17.35;;;16.70;99.90;;;;;;4955825;28;20429;-87
2021/07/26 04:38:35;;;;;;;22.92;16.25;;;16.60;99.90;;;;;;4956937;28;20122;-87
2021/07/26 04:41:02;;;;;;;21.27;17.63;;;16.70;99.90;;;;;;4962671;28;20041;-86
2021/07/26 04:43:28;;;;;;;23.58;15.60;;;16.70;99.90;;;;;;4976807;28;20490;-86
2021/07/26 04:45:55;;;;;;;20.13;16.35;;;16.80;99.90;;;;;;4978342;28;20046;-87
2021/07/26 04:48:23;;;;;;;23.80;16.40;;;16.80;99.90;;;;;;4972667;28;20405;-87
2021/07/26 04:50:49;;;;;;;27.65;17.33;;;16.80;99.90;;;;;;4989961;28;20026;-85
2021/07/26 04:53:14;;;;;;;21.85;15.15;;;16.80;99.90;;;;;;4983498;28;20069;-91
2021/07/26 04:55:40;;;;;;;25.63;17.17;;;16.90;99.90;;;;;;4985033;28;20047;-89
2021/07/26 04:58:06;;;;;;;27.77;14.93;;;16.90;99.90;;;;;;4955676;28;20102;-90
2021/07/26 05:00:32;;;;;;;34.90;19.33;;;16.90;99.90;;;;;;4960004;28;20496;-89
2021/07/26 05:02:58;;;;;;;23.50;17.90;;;17.00;99.90;;;;;;4950067;28;20097;-89
2021/07/26 05:05:24;;;;;;;19.77;15.57;;;17.00;99.90;;;;;;4960719;28;20537;-89
2021/07/26 05:07:50;;;;;;;27.33;18.13;;;17.00;99.90;;;;;;4956512;28;20063;-89
2021/07/26 05:10:16;;;;;;;19.00;15.35;;;17.00;99.90;;;;;;4943276;28;20046;-90
2021/07/26 05:12:42;;;;;;;27.90;18.02;;;17.00;99.90;;;;;;4969094;28;20070;-89
2021/07/26 05:15:09;;;;;;;34.10;19.13;;;17.10;99.90;;;;;;4946638;28;20046;-91
2021/07/26 05:17:36;;;;;;;24.50;16.27;;;17.10;99.90;;;;;;4959555;28;20054;-90
2021/07/26 05:20:02;;;;;;;22.70;18.27;;;17.10;99.90;;;;;;4966269;28;20048;-89
2021/07/26 05:22:28;;;;;;;16.75;14.93;;;17.10;99.90;;;;;;4955850;28;20047;-89
2021/07/26 05:24:54;;;;;;;26.42;20.35;;;17.10;99.90;;;;;;4980852;28;20027;-89
2021/07/26 05:27:21;;;;;;;25.88;18.15;;;17.10;99.90;;;;;;4949449;28;20473;-89
2021/07/26 05:29:47;;;;;;;34.05;21.63;;;17.10;99.90;;;;;;4945993;28;20050;-90
2021/07/26 05:32:13;;;;;;;22.10;18.17;;;17.20;99.90;;;;;;4953217;28;20070;-90
2021/07/26 05:34:39;;;;;;;21.98;16.45;;;17.20;99.90;;;;;;4968345;28;20516;-90
2021/07/26 05:37:05;;;;;;;22.30;18.70;;;17.20;99.90;;;;;;4937856;28;20490;-90
2021/07/26 05:39:31;;;;;;;27.13;19.23;;;17.30;99.90;;;;;;4962465;28;20038;-90
2021/07/26 05:42:00;;;;;;;27.13;23.27;;;17.30;99.90;;;;;;4954884;28;20050;-90
2021/07/26 05:44:27;;;;;;;27.27;21.35;;;17.30;99.90;;;;;;4968363;28;20703;-89
2021/07/26 05:46:54;;;;;;;28.23;19.38;;;17.40;99.90;;;;;;4968120;28;20118;-90
2021/07/26 05:49:20;;;;;;;33.40;22.77;;;17.40;99.90;;;;;;4968925;28;20134;-90
2021/07/26 05:51:46;;;;;;;33.38;26.67;;;17.50;99.90;;;;;;4970355;28;20410;-89
2021/07/26 05:54:11;;;;;;;52.70;35.92;;;17.50;99.90;;;;;;4976570;28;20066;-91
2021/07/26 05:56:48;;;;;;;45.88;34.50;;;17.60;99.90;;;;;;4951682;28;20045;-90
2021/07/26 05:59:31;;;;;;;52.50;37.35;;;17.60;99.90;;;;;;4952187;28;20498;-90
2021/07/26 06:01:57;;;;;;;46.92;34.97;;;17.70;99.90;;;;;;4970820;28;20050;-90
2021/07/26 06:04:24;;;;;;;46.60;35.22;;;17.70;99.90;;;;;;4924364;28;20417;-91
2021/07/26 06:06:51;;;;;;;43.17;34.58;;;17.80;99.90;;;;;;4981053;28;20085;-90
2021/07/26 06:09:18;;;;;;;50.92;35.55;;;17.80;99.90;;;;;;4953519;28;20049;-89
2021/07/26 06:11:45;;;;;;;50.78;37.03;;;17.80;99.90;;;;;;4968554;28;20062;-90
2021/07/26 06:14:12;;;;;;;51.17;36.30;;;17.90;99.90;;;;;;4965017;28;20148;-90
2021/07/26 06:16:43;;;;;;;49.83;38.50;;;17.90;99.90;;;;;;4984483;28;20444;-90
2021/07/26 06:19:09;;;;;;;53.35;39.38;;;17.90;99.90;;;;;;5001446;28;20038;-91
2021/07/26 06:21:48;;;;;;;44.03;35.40;;;18.00;99.90;;;;;;4972625;28;20455;-90
2021/07/26 06:24:15;;;;;;;41.28;32.78;;;18.00;99.90;;;;;;4967321;28;20544;-90
2021/07/26 06:26:42;;;;;;;39.60;32.33;;;18.00;99.90;;;;;;4948363;28;20058;-90
2021/07/26 06:29:08;;;;;;;39.55;32.45;;;18.10;99.90;;;;;;4974978;28;20034;-90
2021/07/26 06:31:35;;;;;;;46.40;35.28;;;18.10;99.90;;;;;;4974672;28;20042;-89
2021/07/26 06:34:03;;;;;;;42.50;32.70;;;18.20;99.90;;;;;;4978581;28;20038;-92
2021/07/26 06:36:29;;;;;;;33.70;29.70;;;18.30;99.90;;;;;;4960686;28;20046;-91
2021/07/26 06:38:56;;;;;;;42.42;33.33;;;18.40;99.90;;;;;;4957749;28;20046;-92
2021/07/26 06:41:22;;;;;;;38.55;30.05;;;18.50;99.90;;;;;;4971093;28;20043;-90
2021/07/26 06:43:50;;;;;;;40.33;31.38;;;18.60;99.90;;;;;;4954978;28;20129;-91
2021/07/26 06:46:16;;;;;;;32.67;28.38;;;18.60;99.90;;;;;;4987136;28;20054;-90
2021/07/26 06:48:42;;;;;;;32.00;25.48;;;18.70;99.90;;;;;;4963022;28;20414;-90
2021/07/26 06:51:08;;;;;;;33.40;26.55;;;18.80;99.90;;;;;;4974462;28;20129;-90
2021/07/26 06:53:34;;;;;;;30.63;25.95;;;18.80;99.90;;;;;;4942313;28;20043;-90
2021/07/26 06:56:04;;;;;;;31.27;24.95;;;18.90;99.90;;;;;;4987329;28;20043;-90
2021/07/26 06:58:31;;;;;;;30.23;24.15;;;18.90;99.90;;;;;;4974205;28;20038;-90
2021/07/26 07:01:10;;;;;;;24.90;21.30;;;19.00;99.90;;;;;;4943059;28;20054;-89
2021/07/26 07:03:36;;;;;;;22.08;19.33;;;19.10;99.90;;;;;;4976157;28;20403;-91
2021/07/26 07:06:02;;;;;;;24.90;19.83;;;19.20;99.90;;;;;;4955397;28;20046;-90
2021/07/26 07:08:29;;;;;;;24.00;19.23;;;19.20;99.90;;;;;;4972598;28;20047;-90
2021/07/26 07:11:06;;;;;;;22.90;18.15;;;19.30;99.90;;;;;;4962421;28;20030;-90
2021/07/26 07:13:34;;;;;;;25.23;18.20;;;19.30;99.90;;;;;;4974938;28;20047;-91
2021/07/26 07:16:00;;;;;;;21.63;17.30;;;19.40;99.90;;;;;;4991279;28;20527;-90
2021/07/26 07:18:26;;;;;;;20.27;15.90;;;19.50;99.90;;;;;;4954762;28;20131;-90
2021/07/26 07:20:52;;;;;;;21.08;15.80;;;19.50;99.90;;;;;;4980349;28;20568;-90
2021/07/26 07:23:18;;;;;;;19.10;15.15;;;19.50;99.90;;;;;;4959189;28;20059;-90
2021/07/26 07:25:44;;;;;;;21.85;15.43;;;19.60;99.90;;;;;;4958107;28;20061;-90
2021/07/26 07:28:09;;;;;;;23.10;16.45;;;19.70;99.90;;;;;;4944344;28;20129;-88
2021/07/26 07:30:35;;;;;;;16.23;13.63;;;19.80;99.90;;;;;;4965677;28;20046;-88
2021/07/26 07:33:01;;;;;;;19.63;14.57;;;20.00;99.90;;;;;;4972467;28;20129;-89
2021/07/26 07:35:28;;;;;;;19.23;14.40;;;20.00;99.90;;;;;;4950339;28;20085;-88
2021/07/26 07:37:54;;;;;;;22.17;14.95;;;20.10;99.90;;;;;;4968919;28;20035;-88
2021/07/26 07:40:22;;;;;;;16.95;13.80;;;20.10;99.90;;;;;;4953494;28;20039;-88
2021/07/26 07:42:49;;;;;;;19.25;14.60;;;20.20;99.90;;;;;;4964921;28;20031;-88
2021/07/26 07:45:14;;;;;;;20.45;13.82;;;20.30;99.90;;;;;;4982219;28;20031;-87
2021/07/26 07:47:40;;;;;;;19.13;13.50;;;20.40;99.90;;;;;;4967945;28;20126;-89
2021/07/26 07:50:08;;;;;;;14.90;12.57;;;20.50;99.90;;;;;;4961758;28;20035;-88
2021/07/26 07:52:37;;;;;;;17.90;13.55;;;20.60;99.90;;;;;;4970920;28;20035;-89
2021/07/26 07:55:03;;;;;;;16.58;12.55;;;20.70;99.90;;;;;;4963948;28;20039;-88
2021/07/26 07:57:30;;;;;;;18.33;11.68;;;20.80;99.90;;;;;;4946629;28;20038;-89
2021/07/26 07:59:56;;;;;;;16.40;11.13;;;20.90;99.90;;;;;;4977853;28;20149;-86
2021/07/26 08:02:22;;;;;;;20.65;9.73;;;21.00;99.90;;;;;;4967341;28;20158;-89
2021/07/26 08:04:50;;;;;;;11.68;8.82;;;21.00;99.90;;;;;;4981005;28;20031;-89
2021/07/26 08:07:16;;;;;;;14.50;8.80;;;21.10;99.90;;;;;;4968375;28;20413;-87
2021/07/26 08:09:42;;;;;;;14.30;9.35;;;21.10;99.90;;;;;;4964670;28;20414;-89
2021/07/26 08:12:08;;;;;;;14.93;9.77;;;21.20;99.90;;;;;;4985344;28;20077;-88
2021/07/26 08:14:34;;;;;;;11.98;8.82;;;21.30;99.90;;;;;;4985314;28;20038;-88
2021/07/26 08:17:03;;;;;;;15.32;8.98;;;21.40;99.90;;;;;;4981953;28;20039;-87
2021/07/26 08:19:29;;;;;;;13.23;8.60;;;21.40;99.90;;;;;;4983033;28;20031;-88
2021/07/26 08:21:55;;;;;;;11.25;7.68;;;21.40;99.90;;;;;;4984510;28;20125;-88
2021/07/26 08:24:21;;;;;;;9.57;7.63;;;21.50;99.90;;;;;;4971848;28;20038;-88
2021/07/26 08:26:47;;;;;;;10.05;6.95;;;21.50;99.90;;;;;;4950042;28;20047;-88
2021/07/26 08:29:13;;;;;;;11.05;7.60;;;21.60;99.90;;;;;;4970375;28;20034;-87
2021/07/26 08:31:39;;;;;;;11.00;7.53;;;21.70;99.90;;;;;;4948008;28;20655;-88
2021/07/26 08:34:04;;;;;;;11.57;8.25;;;21.70;99.90;;;;;;4952217;28;20070;-90
2021/07/26 08:36:30;;;;;;;14.27;8.52;;;21.80;99.90;;;;;;4967230;28;20433;-88
2021/07/26 08:38:56;;;;;;;8.90;6.65;;;21.80;99.90;;;;;;4981898;28;20042;-88
2021/07/26 08:41:22;;;;;;;12.15;7.60;;;21.90;99.90;;;;;;4939771;28;20129;-88
2021/07/26 08:43:48;;;;;;;10.98;7.00;;;21.90;99.90;;;;;;4970558;28;20343;-89
2021/07/26 08:46:19;;;;;;;8.82;6.65;;;22.00;99.90;;;;;;4979965;28;20035;-87
2021/07/26 08:48:47;;;;;;;9.77;7.45;;;22.00;99.90;;;;;;4938479;28;20030;-89
2021/07/26 08:51:20;;;;;;;9.43;7.20;;;22.00;99.90;;;;;;4974688;28;20070;-89
2021/07/26 08:53:50;;;;;;;11.65;7.40;;;22.00;99.90;;;;;;4967966;28;20114;-88
2021/07/26 08:56:17;;;;;;;6.70;5.13;;;22.00;99.90;;;;;;4984363;28;20518;-88
2021/07/26 08:58:43;;;;;;;7.82;4.50;;;22.00;99.50;;;;;;4986681;28;20038;-87
2021/07/26 09:01:14;;;;;;;8.55;5.57;;;22.00;98.80;;;;;;4971507;28;20035;-89
2021/07/26 09:03:41;;;;;;;8.98;5.80;;;21.90;98.50;;;;;;4955865;28;20042;-86
2021/07/26 09:06:07;;;;;;;8.07;5.00;;;21.90;98.60;;;;;;4969797;28;20042;-88
2021/07/26 09:08:38;;;;;;;6.60;4.93;;;21.90;98.70;;;;;;4943399;28;20039;-86
2021/07/26 09:11:05;;;;;;;8.05;5.20;;;21.90;98.80;;;;;;4968071;28;20429;-88
2021/07/26 09:13:44;;;;;;;9.15;5.50;;;21.90;98.80;;;;;;4968441;28;20030;-88
2021/07/26 09:16:21;;;;;;;7.55;4.90;;;21.80;98.90;;;;;;4985711;28;20035;-88
2021/07/26 09:19:08;;;;;;;8.30;5.10;;;21.90;98.60;;;;;;4964968;28;20035;-88
2021/07/26 09:21:53;;;;;;;7.63;4.97;;;22.00;98.70;;;;;;4951951;28;20493;-86
2021/07/26 09:24:27;;;;;;;7.63;4.55;;;22.10;98.20;;;;;;4965177;28;20038;-88
2021/07/26 09:26:54;;;;;;;6.75;4.85;;;22.20;98.00;;;;;;4968169;28;20397;-87
2021/07/26 09:29:30;;;;;;;5.95;4.68;;;22.20;97.90;;;;;;4951116;28;20145;-88
2021/07/26 09:32:01;;;;;;;6.95;5.30;;;22.20;97.80;;;;;;4938401;28;20058;-87
2021/07/26 09:34:28;;;;;;;8.43;5.20;;;22.30;97.60;;;;;;4932177;28;20054;-87
2021/07/26 09:36:54;;;;;;;6.55;4.72;;;22.30;97.50;;;;;;4968176;28;20313;-86
2021/07/26 09:39:28;;;;;;;6.72;4.70;;;22.30;97.80;;;;;;4964588;28;20042;-88
2021/07/26 09:41:56;;;;;;;6.88;3.90;;;22.30;97.30;;;;;;4951939;28;20045;-88
2021/07/26 09:44:27;;;;;;;11.20;4.10;;;22.30;97.30;;;;;;4957463;28;20047;-88
2021/07/26 09:47:13;;;;;;;8.27;4.15;;;22.20;97.50;;;;;;4951900;28;20410;-87
2021/07/26 09:49:39;;;;;;;9.02;4.68;;;22.20;97.30;;;;;;4986387;28;20133;-86
2021/07/26 09:52:10;;;;;;;5.18;4.13;;;22.20;97.50;;;;;;4963945;28;20047;-88
2021/07/26 09:54:48;;;;;;;7.20;4.97;;;22.30;97.50;;;;;;4961965;28;20050;-87
2021/07/26 09:57:26;;;;;;;6.00;4.45;;;22.30;97.20;;;;;;4950041;28;20055;-86
2021/07/26 09:59:53;;;;;;;6.03;4.78;;;22.30;96.90;;;;;;4970851;28;20035;-86
2021/07/26 10:02:21;;;;;;;6.65;4.30;;;22.30;97.10;;;;;;4987393;28;20041;-87
2021/07/26 10:04:48;;;;;;;7.03;3.80;;;22.30;96.40;;;;;;4974924;28;20030;-87
2021/07/26 10:07:15;;;;;;;8.52;4.90;;;22.40;96.50;;;;;;4972152;28;20031;-89
2021/07/26 10:09:42;;;;;;;5.20;3.72;;;22.50;96.40;;;;;;4950555;28;20097;-87
2021/07/26 10:12:10;;;;;;;5.40;3.40;;;22.60;95.70;;;;;;4966684;28;20086;-88
2021/07/26 10:14:41;;;;;;;5.55;3.60;;;22.60;95.30;;;;;;4970889;28;20529;-87
2021/07/26 10:17:08;;;;;;;6.80;4.18;;;22.70;95.20;;;;;;4989675;28;20505;-86
2021/07/26 10:19:34;;;;;;;6.05;4.43;;;22.70;95.30;;;;;;4996029;28;20097;-86
2021/07/26 10:22:02;;;;;;;5.45;4.18;;;22.70;95.30;;;;;;4987644;28;20121;-87
2021/07/26 10:24:47;;;;;;;6.93;4.38;;;22.70;95.30;;;;;;4987572;28;20510;-87
2021/07/26 10:27:40;;;;;;;10.30;4.75;;;22.70;96.00;;;;;;4989726;28;20066;-86
2021/07/26 10:30:06;;;;;;;7.47;4.75;;;22.70;96.30;;;;;;4965607;28;20194;-88
2021/07/26 10:32:37;;;;;;;6.95;5.47;;;22.80;96.50;;;;;;4945309;28;20097;-85
2021/07/26 10:35:12;;;;;;;5.47;4.40;;;22.80;96.30;;;;;;4970210;28;20114;-87
2021/07/26 10:37:41;;;;;;;10.60;4.70;;;22.80;95.70;;;;;;4970133;28;20034;-86
2021/07/26 10:40:22;;;;;;;7.40;4.38;;;22.80;95.60;;;;;;4974188;28;20027;-89
2021/07/26 10:42:50;;;;;;;5.53;3.75;;;22.80;95.50;;;;;;4968505;28;20291;-87
2021/07/26 10:45:31;;;;;;;6.22;3.80;;;22.80;94.70;;;;;;4969740;28;20038;-85
2021/07/26 10:48:22;;;;;;;7.88;4.43;;;22.80;95.10;;;;;;4975914;28;20042;-87
2021/07/26 10:50:49;;;;;;;6.90;4.22;;;22.80;95.10;;;;;;4976743;28;20129;-86
2021/07/26 10:53:34;;;;;;;8.40;4.70;;;22.80;94.60;;;;;;4969961;28;20409;-86
2021/07/26 10:56:05;;;;;;;9.27;4.70;;;22.80;94.90;;;;;;4967374;28;20039;-85
2021/07/26 10:58:42;;;;;;;4.70;4.20;;;23.00;94.70;;;;;;4983955;28;20041;-87
2021/07/26 11:01:20;;;;;;;7.03;4.57;;;23.00;94.60;;;;;;4973445;28;20039;-85
2021/07/26 11:03:54;;;;;;;5.97;4.57;;;23.10;94.40;;;;;;4963706;28;20406;-87
2021/07/26 11:06:37;;;;;;;7.45;5.05;;;23.20;94.50;;;;;;4969616;28;20034;-86
2021/07/26 11:09:19;;;;;;;5.65;4.70;;;23.20;94.70;;;;;;4978446;28;20067;-86
2021/07/26 11:11:49;;;;;;;6.53;4.05;;;23.30;94.40;;;;;;4983583;28;20474;-89
2021/07/26 11:14:15;;;;;;;7.78;4.07;;;23.20;93.60;;;;;;4978977;28;20027;-86
2021/07/26 11:19:34;;;;;;;7.65;3.13;;;23.10;93.40;;;;;;4969189;28;20046;-85
2021/07/26 11:22:15;;;;;;;4.47;3.08;;;23.20;93.70;;;;;;4973700;28;20191;-88
2021/07/26 11:24:41;;;;;;;7.00;3.28;;;23.30;92.90;;;;;;4974715;28;20114;-86
2021/07/26 11:27:14;;;;;;;5.90;2.70;;;23.30;92.80;;;;;;4985319;28;20114;-85
2021/07/26 11:30:20;;;;;;;4.28;2.50;;;23.30;93.10;;;;;;4984898;28;20450;-87
2021/07/26 11:32:53;;;;;;;3.92;2.80;;;23.30;92.90;;;;;;4990980;28;20557;-86
2021/07/26 11:35:19;;;;;;;2.72;2.25;;;23.20;92.50;;;;;;4966909;28;20068;-88
2021/07/26 11:37:45;;;;;;;4.95;2.50;;;23.30;91.60;;;;;;4973429;28;20121;-86
2021/07/26 11:40:11;;;;;;;6.00;2.13;;;23.30;91.00;;;;;;4946598;28;20163;-87
2021/07/26 11:42:39;;;;;;;6.25;3.00;;;23.30;91.70;;;;;;4932694;28;20042;-87
2021/07/26 11:45:07;;;;;;;3.63;2.45;;;23.40;91.40;;;;;;4984275;28;20034;-85
2021/07/26 11:47:39;;;;;;;3.65;2.55;;;23.30;91.40;;;;;;4973980;28;20046;-87
2021/07/26 11:50:11;;;;;;;4.30;2.90;;;23.30;91.80;;;;;;4979976;28;20517;-88
2021/07/26 11:52:38;;;;;;;5.00;3.15;;;23.30;92.20;;;;;;4942753;28;20043;-85
2021/07/26 11:55:12;;;;;;;3.85;2.33;;;23.30;91.30;;;;;;4963849;28;20049;-85
2021/07/26 11:57:52;;;;;;;5.47;2.90;;;23.30;91.90;;;;;;4984549;28;20035;-87
2021/07/26 12:00:24;;;;;;;5.85;2.92;;;23.50;92.30;;;;;;4962854;28;20034;-87
2021/07/26 12:02:53;;;;;;;3.72;2.50;;;23.60;92.20;;;;;;4986855;28;20490;-87
2021/07/26 12:05:30;;;;;;;4.32;2.90;;;23.70;91.90;;;;;;4952547;28;20062;-87
2021/07/26 12:07:57;;;;;;;3.78;2.80;;;23.80;90.80;;;;;;4978577;28;20477;-85
2021/07/26 12:10:37;;;;;;;6.72;2.90;;;23.90;90.70;;;;;;4969287;28;20030;-85
2021/07/26 12:13:12;;;;;;;4.05;2.53;;;23.90;91.00;;;;;;4971715;28;20379;-85
2021/07/26 12:15:40;;;;;;;3.38;2.90;;;23.80;90.60;;;;;;4974398;28;20477;-86
2021/07/26 12:18:11;;;;;;;5.40;2.97;;;23.70;90.70;;;;;;4968038;28;20074;-89
2021/07/26 12:21:02;;;;;;;2.95;2.25;;;23.80;90.70;;;;;;4985157;28;20105;-85
2021/07/26 12:23:37;;;;;;;3.45;2.47;;;23.80;90.00;;;;;;4967658;28;20054;-86
2021/07/26 12:26:08;;;;;;;7.55;2.85;;;23.90;90.40;;;;;;4934133;28;20035;-85
2021/07/26 12:28:54;;;;;;;3.15;2.53;;;23.90;90.40;;;;;;4983609;28;20043;-87
2021/07/26 12:31:31;;;;;;;3.83;2.63;;;23.90;90.10;;;;;;4975267;28;20030;-85
2021/07/26 12:34:22;;;;;;;3.33;2.53;;;23.80;90.20;;;;;;4970477;28;20027;-86
2021/07/26 12:36:49;;;;;;;4.75;2.40;;;23.80;90.50;;;;;;4952556;28;20097;-87
2021/07/26 12:39:15;;;;;;;4.00;2.63;;;23.80;89.50;;;;;;4987283;28;20401;-87
2021/07/26 12:41:44;;;;;;;4.07;2.35;;;23.80;89.00;;;;;;4978877;28;20034;-86
2021/07/26 12:44:27;;;;;;;5.18;2.63;;;23.80;88.10;;;;;;4977995;28;20454;-85